This is the latest recevied weather packets stored in our database for station/object KI2K. If no packets are shown the sender has not sent any weather packets the latest 1 day(s).
| Time | Temp. | Humidity | Pressure | Rain* | Wind** | Luminosity | Snow |
|---|---|---|---|---|---|---|---|
| 1778010269 | 11.67° C | 99% | 1007.2 hPa | 0 mm | 0 m/s | 16 W/m² | - |
| 1778009968 | 11.67° C | 99% | 1007.3 hPa | 0 mm | 0 m/s | 14 W/m² | - |
| 1778009667 | 12.22° C | 99% | 1007.2 hPa | 1.27 mm | 0 m/s | 16 W/m² | - |
| 1778009364 | 12.22° C | 99% | 1007.6 hPa | 1.27 mm | 0 m/s | 19 W/m² | - |
| 1778009062 | 12.22° C | 99% | 1007.3 hPa | 0 mm | 0.45 m/s, 274° | 16 W/m² | - |
| 1778008759 | 12.22° C | 99% | 1007.5 hPa | 0 mm | 0.45 m/s, 282° | 21 W/m² | - |
| 1778008458 | 12.22° C | 99% | 1007.3 hPa | 0 mm | 0 m/s | 24 W/m² | - |
| 1778008155 | 12.22° C | 99% | 1007.2 hPa | 0 mm | 0.45 m/s, 275° | 33 W/m² | - |
| 1778007850 | 12.22° C | 99% | 1007.3 hPa | 0 mm | 0 m/s | 23 W/m² | - |
| 1778007545 | 12.22° C | 99% | 1007 hPa | 0 mm | 0 m/s | 39 W/m² | - |
| 1778007243 | 12.22° C | 99% | 1007.4 hPa | 0 mm | 0.45 m/s, 258° | 54 W/m² | - |
| 1778006938 | 12.22° C | 99% | 1007.3 hPa | 0 mm | 0 m/s | 51 W/m² | - |
| 1778006636 | 12.22° C | 99% | 1007.2 hPa | 0 mm | 0 m/s | 71 W/m² | - |
| 1778006333 | 12.22° C | 99% | 1007.3 hPa | 1.78 mm | 0 m/s | 51 W/m² | - |
| 1778006029 | 11.67° C | 99% | 1007.2 hPa | 3.05 mm | 0 m/s | 53 W/m² | - |
| 1778005726 | 11.67° C | 99% | 1007.3 hPa | 6.1 mm | 0.45 m/s, 306° | 68 W/m² | - |
| 1778005423 | 11.67° C | 99% | 1007.4 hPa | 7.87 mm | 0.89 m/s, 70° | 53 W/m² | - |
| 1778005120 | 11.67° C | 99% | 1007.3 hPa | 3.05 mm | 0 m/s | 58 W/m² | - |
| 1778004817 | 11.67° C | 99% | 1006.9 hPa | 0 mm | 0 m/s | 62 W/m² | - |
| 1778004513 | 11.67° C | 99% | 1006.9 hPa | 0 mm | 0 m/s | 96 W/m² | - |
| 1778004210 | 11.67° C | 99% | 1007 hPa | 1.27 mm | 0 m/s | 99 W/m² | - |
| 1778003906 | 11.11° C | 98% | 1007 hPa | 3.05 mm | 0.45 m/s, 9° | 106 W/m² | - |
| 1778003603 | 11.11° C | 98% | 1007.5 hPa | 4.83 mm | 0.89 m/s, 65° | 101 W/m² | - |
| 1778003299 | 11.67° C | 98% | 1007.5 hPa | 3.05 mm | 0.45 m/s, 216° | 87 W/m² | - |
| 1778002997 | 11.67° C | 99% | 1007.7 hPa | 4.32 mm | 0 m/s | 78 W/m² | - |
* Rain latest hour (hover to see other rain measurements)
** Current wind speed in m/s (hover to see current wind gust speed)